Time;durP1;ratioP1;P1;durP2;ratioP2;P2;SDS_P1;SDS_P2;PMS_P1;PMS_P2;Temp;Humidity;BMP_temperature;BMP_pressure;BME280_temperature;BME280_humidity;BME280_pressure;Samples;Min_cycle;Max_cycle;Signal;HPM_P1;HPM_P2
2023/01/09 00:00:19;;;;;;;;;;;;;;;20.22;59.03;99521.63;5022742;28;5588;-62
2023/01/09 00:02:45;;;;;;;;;;;;;;;20.21;59.01;99520.16;5018583;28;5367;-62
2023/01/09 00:05:14;;;;;;;;;;;;;;;20.21;59.10;99514.44;5021445;28;4135;-62
2023/01/09 00:07:41;;;;;;;;;;;;;;;20.20;59.00;99506.47;5018511;28;4214;-62
2023/01/09 00:10:07;;;;;;;;;;;;;;;20.20;58.89;99507.22;5023698;28;4209;-62
2023/01/09 00:12:34;;;;;;;;;;;;;;;20.18;58.85;99497.78;5022870;28;4378;-62
2023/01/09 00:15:01;;;;;;;;;;;;;;;20.18;58.93;99497.78;5022604;28;4114;-61
2023/01/09 00:17:27;;;;;;;;;;;;;;;20.18;59.04;99509.28;5019260;28;5380;-62
2023/01/09 00:19:57;;;;;;;;;;;;;;;20.18;58.97;99503.53;5018460;28;5403;-62
2023/01/09 00:22:23;;;;;;;;;;;;;;;20.17;58.92;99499.94;5024065;28;4150;-62
2023/01/09 00:24:50;;;;;;;;;;;;;;;20.16;58.93;99495.63;5018343;28;4085;-62
2023/01/09 00:27:16;;;;;;;;;;;;;;;20.16;59.04;99484.13;5023602;28;4204;-62
2023/01/09 00:29:44;;;;;;;;;;;;;;;20.16;58.81;99486.25;5019432;28;4135;-62
2023/01/09 00:32:11;;;;;;;;;;;;;;;20.16;58.79;99480.50;5023643;28;4193;-62
2023/01/09 00:34:37;;;;;;;;;;;;;;;20.14;58.74;99484.06;5022068;28;4067;-62
2023/01/09 00:37:10;;;;;;;;;;;;;;;20.15;58.97;99487.66;5021507;28;4174;-62
2023/01/09 00:39:37;;;;;;;;;;;;;;;20.13;58.86;99479.72;5014685;28;4659;-62
2023/01/09 00:42:03;;;;;;;;;;;;;;;20.13;58.80;99470.38;5017457;28;4240;-62
2023/01/09 00:44:32;;;;;;;;;;;;;;;20.13;58.97;99467.50;5020072;28;4294;-62
2023/01/09 00:46:59;;;;;;;;;;;;;;;20.13;58.94;99462.47;5021694;28;4023;-62
2023/01/09 00:49:27;;;;;;;;;;;;;;;20.12;58.86;99461.03;4994723;28;5461;-62
2023/01/09 00:51:53;;;;;;;;;;;;;;;20.12;58.82;99461.03;5020622;28;4087;-62
2023/01/09 00:54:20;;;;;;;;;;;;;;;20.10;58.84;99452.34;5005531;28;4128;-62
2023/01/09 00:56:46;;;;;;;;;;;;;;;20.09;59.01;99448.03;5003505;28;4188;-62
2023/01/09 00:59:13;;;;;;;;;;;;;;;20.09;58.95;99451.63;4998302;28;4190;-63
2023/01/09 01:01:39;;;;;;;;;;;;;;;20.09;59.07;99450.91;5018865;28;4134;-62
2023/01/09 01:09:35;;;;;;;;;;;;;;;20.11;59.08;99441.59;5016489;28;4452;-62
2023/01/09 01:12:05;;;;;;;;;;;;;;;20.14;58.79;99434.50;5014688;28;4212;-62
2023/01/09 01:14:35;;;;;;;;;;;;;;;20.14;58.74;99435.22;5021017;28;4111;-62
2023/01/09 01:17:02;;;;;;;;;;;;;;;20.17;58.73;99444.63;5019192;28;4307;-62
2023/01/09 01:19:28;;;;;;;;;;;;;;;20.18;58.81;99443.19;5018149;28;4089;-62
2023/01/09 01:21:55;;;;;;;;;;;;;;;20.19;58.88;99444.66;5020334;28;4232;-62
2023/01/09 01:24:21;;;;;;;;;;;;;;;20.19;58.76;99442.53;5025489;28;4211;-62
2023/01/09 01:26:48;;;;;;;;;;;;;;;20.19;58.78;99436.03;5022524;28;4146;-62
2023/01/09 01:29:14;;;;;;;;;;;;;;;20.21;58.51;99430.34;5019115;28;4122;-62
2023/01/09 01:31:40;;;;;;;;;;;;;;;20.22;58.64;99428.94;5019847;28;4191;-62
2023/01/09 01:34:07;;;;;;;;;;;;;;;20.22;58.80;99426.06;5018378;28;5229;-64
2023/01/09 01:36:33;;;;;;;;;;;;;;;20.20;58.71;99432.50;5025686;28;4155;-62
2023/01/09 01:38:59;;;;;;;;;;;;;;;20.20;58.44;99426.00;5023815;28;4216;-62
2023/01/09 01:41:28;;;;;;;;;;;;;;;20.20;58.76;99426.00;5024944;28;4116;-62
2023/01/09 01:43:56;;;;;;;;;;;;;;;20.19;58.69;99428.16;5019393;28;4041;-62
2023/01/09 01:46:22;;;;;;;;;;;;;;;20.19;58.87;99418.81;5022611;28;4239;-62
2023/01/09 01:48:49;;;;;;;;;;;;;;;20.19;58.85;99413.06;5020406;28;4216;-62
2023/01/09 01:51:17;;;;;;;;;;;;;;;20.19;58.87;99413.06;4998897;28;3978;-62
2023/01/09 01:53:47;;;;;;;;;;;;;;;20.18;58.68;99414.44;5026703;28;5368;-62
2023/01/09 01:56:16;;;;;;;;;;;;;;;20.18;58.70;99405.84;5023435;28;4153;-62
2023/01/09 01:58:44;;;;;;;;;;;;;;;20.18;58.83;99400.09;5022068;28;4287;-62
2023/01/09 02:01:10;;;;;;;;;;;;;;;20.17;58.68;99392.88;5023870;28;4014;-63
2023/01/09 02:03:37;;;;;;;;;;;;;;;20.16;58.94;99397.91;4992423;28;4472;-62
2023/01/09 02:06:04;;;;;;;;;;;;;;;20.16;59.62;99400.03;5020336;28;4177;-62
2023/01/09 02:08:30;;;;;;;;;;;;;;;20.15;59.64;99396.44;4996606;28;5314;-62
2023/01/09 02:10:57;;;;;;;;;;;;;;;20.14;59.43;99382.75;5014501;28;4116;-62
2023/01/09 02:13:23;;;;;;;;;;;;;;;20.14;59.31;99388.50;5023597;28;4214;-62
2023/01/09 02:16:01;;;;;;;;;;;;;;;20.13;59.18;99387.75;4999044;28;4187;-62
2023/01/09 02:18:30;;;;;;;;;;;;;;;20.13;59.25;99384.16;4989785;28;4161;-62
2023/01/09 02:21:01;;;;;;;;;;;;;;;20.12;59.23;99388.47;4996703;28;3996;-62
2023/01/09 02:23:44;;;;;;;;;;;;;;;20.11;59.16;99386.97;4999325;28;4283;-62
2023/01/09 02:26:10;;;;;;;;;;;;;;;20.11;59.18;99386.97;4994690;28;4147;-62
2023/01/09 02:28:50;;;;;;;;;;;;;;;20.09;59.08;99385.53;5003385;28;4038;-62
2023/01/09 02:31:18;;;;;;;;;;;;;;;20.08;59.06;99392.69;4993113;28;5241;-62
2023/01/09 02:33:50;;;;;;;;;;;;;;;20.08;58.96;99381.19;5002676;28;4047;-62
2023/01/09 02:36:35;;;;;;;;;;;;;;;20.03;59.12;99378.91;5020454;28;4129;-62
2023/01/09 02:39:01;;;;;;;;;;;;;;;20.06;59.12;99381.13;5018226;28;4486;-62
2023/01/09 02:41:30;;;;;;;;;;;;;;;20.06;59.03;99386.88;5017357;28;4347;-62
2023/01/09 02:44:01;;;;;;;;;;;;;;;20.07;59.27;99390.50;5017015;28;4154;-62
2023/01/09 02:46:27;;;;;;;;;;;;;;;20.05;59.24;99393.34;5020743;28;4717;-62
2023/01/09 03:08:27;;;;;;;;;;;;;;;19.99;59.00;99378.81;4994567;28;4353;-62
2023/01/09 03:10:55;;;;;;;;;;;;;;;19.99;59.00;99384.56;4985981;28;4488;-62
2023/01/09 03:13:22;;;;;;;;;;;;;;;19.98;58.89;99378.09;4996793;28;4171;-62
2023/01/09 03:15:49;;;;;;;;;;;;;;;19.97;58.86;99376.59;5023422;28;4173;-62
2023/01/09 03:18:16;;;;;;;;;;;;;;;19.98;58.84;99380.22;5022151;28;4239;-62
2023/01/09 03:20:43;;;;;;;;;;;;;;;19.99;58.80;99368.03;4998453;28;5278;-62
2023/01/09 03:23:09;;;;;;;;;;;;;;;20.00;58.65;99363.78;5020785;28;4117;-62
2023/01/09 03:25:35;;;;;;;;;;;;;;;20.01;58.78;99368.09;5024094;28;4180;-62
2023/01/09 03:28:02;;;;;;;;;;;;;;;20.05;58.48;99358.84;5024890;28;4012;-62
2023/01/09 03:30:29;;;;;;;;;;;;;;;20.07;58.64;99361.78;5018617;28;4203;-62
2023/01/09 03:32:56;;;;;;;;;;;;;;;20.07;58.41;99342.38;5022237;28;4142;-62
2023/01/09 03:35:22;;;;;;;;;;;;;;;20.08;58.40;99343.09;5015344;28;5212;-62
2023/01/09 03:37:50;;;;;;;;;;;;;;;20.08;58.72;99335.22;5021872;28;4041;-62
2023/01/09 03:40:17;;;;;;;;;;;;;;;20.10;58.64;99343.16;5022709;28;4110;-62
2023/01/09 03:42:43;;;;;;;;;;;;;;;20.09;58.54;99345.31;5021719;28;4256;-62
2023/01/09 03:45:09;;;;;;;;;;;;;;;20.12;58.66;99333.88;5017010;28;4200;-61
2023/01/09 03:47:36;;;;;;;;;;;;;;;20.12;58.75;99333.88;5018959;28;4183;-62
2023/01/09 03:50:02;;;;;;;;;;;;;;;20.13;58.63;99318.06;5024139;28;4170;-62
2023/01/09 03:52:28;;;;;;;;;;;;;;;20.14;58.79;99313.78;5022586;28;4123;-61
2023/01/09 03:54:55;;;;;;;;;;;;;;;20.16;58.55;99316.69;5021963;28;4209;-61
2023/01/09 03:57:23;;;;;;;;;;;;;;;20.15;58.77;99321.00;5018133;28;4028;-62
2023/01/09 03:59:49;;;;;;;;;;;;;;;20.15;59.07;99315.25;5022752;28;4241;-62
2023/01/09 04:02:15;;;;;;;;;;;;;;;20.16;58.86;99317.44;5024170;28;5289;-62
2023/01/09 04:04:42;;;;;;;;;;;;;;;20.14;58.73;99314.53;5020640;28;4292;-61
2023/01/09 04:07:08;;;;;;;;;;;;;;;20.15;58.86;99309.50;5016496;28;4189;-62
2023/01/09 04:09:34;;;;;;;;;;;;;;;20.16;58.91;99305.94;5023286;28;4073;-62
2023/01/09 04:12:01;;;;;;;;;;;;;;;20.17;58.89;99309.53;5022669;28;4098;-62
2023/01/09 04:14:27;;;;;;;;;;;;;;;20.18;59.12;99296.63;5019879;28;4154;-61
2023/01/09 04:16:53;;;;;;;;;;;;;;;20.18;58.95;99302.38;5019044;28;4331;-62
2023/01/09 04:19:20;;;;;;;;;;;;;;;20.19;59.48;99298.09;5021821;28;5362;-61
2023/01/09 04:21:46;;;;;;;;;;;;;;;20.19;59.76;99298.09;5018588;28;4227;-62
2023/01/09 04:24:12;;;;;;;;;;;;;;;20.19;59.11;99303.84;5021299;28;5360;-61
2023/01/09 04:26:39;;;;;;;;;;;;;;;20.19;58.99;99295.94;5019989;28;4163;-61
2023/01/09 04:29:05;;;;;;;;;;;;;;;20.19;58.85;99298.09;5022315;28;4194;-61
2023/01/09 04:31:31;;;;;;;;;;;;;;;20.20;58.88;99288.06;5023116;28;4267;-61
2023/01/09 04:33:58;;;;;;;;;;;;;;;20.20;58.76;99294.56;5022386;28;5231;-61
2023/01/09 04:36:24;;;;;;;;;;;;;;;20.21;59.17;99283.78;5022186;28;4235;-61
2023/01/09 04:38:50;;;;;;;;;;;;;;;20.20;59.24;99280.19;5013809;28;4132;-61
2023/01/09 04:41:47;;;;;;;;;;;;;;;20.21;59.16;99284.50;5022950;28;5310;-64
2023/01/09 04:44:03;;;;;;;;;;;;;;;20.23;59.39;99280.94;5020714;28;4125;-61
2023/01/09 04:46:30;;;;;;;;;;;;;;;20.23;59.08;99280.94;5022314;28;4593;-62
2023/01/09 04:48:56;;;;;;;;;;;;;;;20.24;59.42;99288.16;5020077;28;4194;-62
2023/01/09 04:51:22;;;;;;;;;;;;;;;20.24;59.37;99286.00;5023420;28;4032;-62
2023/01/09 04:53:49;;;;;;;;;;;;;;;20.24;59.70;99276.66;5023461;28;4083;-62
2023/01/09 04:56:15;;;;;;;;;;;;;;;20.25;59.42;99272.38;5023161;28;5347;-61
2023/01/09 04:58:41;;;;;;;;;;;;;;;20.24;59.24;99274.50;5022802;28;4101;-61
2023/01/09 05:01:07;;;;;;;;;;;;;;;20.23;59.72;99272.34;5023175;28;4267;-62
2023/01/09 05:03:34;;;;;;;;;;;;;;;20.22;59.39;99274.44;5021503;28;4441;-61
2023/01/09 05:06:03;;;;;;;;;;;;;;;20.24;59.24;99282.41;5025867;28;3960;-62
2023/01/09 05:08:30;;;;;;;;;;;;;;;20.24;59.51;99270.91;5026167;28;4157;-62
2023/01/09 05:10:56;;;;;;;;;;;;;;;20.26;59.34;99282.44;5025205;28;4114;-62
2023/01/09 05:13:22;;;;;;;;;;;;;;;20.26;59.14;99274.53;5024573;28;4203;-61
2023/01/09 05:15:49;;;;;;;;;;;;;;;20.26;59.46;99273.81;5027854;28;5805;-61
2023/01/09 05:18:15;;;;;;;;;;;;;;;20.25;59.79;99269.50;5024437;28;5133;-62
2023/01/09 05:20:42;;;;;;;;;;;;;;;20.25;59.31;99266.63;5021601;28;4179;-61
2023/01/09 05:23:08;;;;;;;;;;;;;;;20.26;59.92;99268.78;5024921;28;5400;-61
2023/01/09 05:25:34;;;;;;;;;;;;;;;20.25;59.63;99263.75;5025002;28;4509;-62
2023/01/09 05:28:01;;;;;;;;;;;;;;;20.26;59.50;99265.19;5026534;28;4319;-61
2023/01/09 05:30:33;;;;;;;;;;;;;;;20.26;59.61;99268.78;5019748;28;4310;-62
2023/01/09 05:32:59;;;;;;;;;;;;;;;20.27;59.51;99258.03;5021918;28;5140;-62
2023/01/09 05:35:26;;;;;;;;;;;;;;;20.28;59.33;99259.50;5021735;28;4368;-61
2023/01/09 05:37:52;;;;;;;;;;;;;;;20.28;59.34;99265.97;5025465;28;4059;-62
2023/01/09 05:40:18;;;;;;;;;;;;;;;20.29;59.16;99249.44;5025034;28;5497;-61
2023/01/09 05:42:45;;;;;;;;;;;;;;;20.29;59.79;99261.69;5024797;28;5268;-61
2023/01/09 05:45:11;;;;;;;;;;;;;;;20.29;59.54;99255.19;5023455;28;4216;-62
2023/01/09 05:47:37;;;;;;;;;;;;;;;20.29;59.99;99258.81;5027372;28;4006;-61
2023/01/09 05:50:05;;;;;;;;;;;;;;;20.29;59.92;99255.94;5023019;28;4146;-61
2023/01/09 05:52:31;;;;;;;;;;;;;;;20.28;60.00;99254.47;5020434;28;4144;-61
2023/01/09 05:54:57;;;;;;;;;;;;;;;20.28;59.79;99250.88;5024071;28;4512;-61
2023/01/09 05:57:24;;;;;;;;;;;;;;;20.28;60.01;99248.00;5015217;28;4414;-61
2023/01/09 05:59:50;;;;;;;;;;;;;;;20.28;59.53;99248.00;5020525;28;4208;-61
2023/01/09 06:02:16;;;;;;;;;;;;;;;20.27;59.71;99243.66;5018845;28;4103;-61
2023/01/09 06:04:43;;;;;;;;;;;;;;;20.18;59.47;99239.91;5021008;28;6252;-63
2023/01/09 06:07:09;;;;;;;;;;;;;;;20.35;59.42;99228.75;5015566;28;5441;-61
2023/01/09 06:09:36;;;;;;;;;;;;;;;20.33;59.46;99240.91;5019644;28;5452;-61
2023/01/09 06:12:02;;;;;;;;;;;;;;;20.35;59.44;99240.97;5020995;28;4161;-59
2023/01/09 06:14:28;;;;;;;;;;;;;;;20.38;59.42;99239.56;5024436;28;4023;-60
2023/01/09 06:16:55;;;;;;;;;;;;;;;20.40;59.37;99236.03;5024009;28;4216;-60
2023/01/09 06:19:21;;;;;;;;;;;;;;;20.41;59.28;99232.47;5023125;28;5367;-63
2023/01/09 06:21:47;;;;;;;;;;;;;;;20.61;59.68;99231.44;5003254;28;4289;-63
2023/01/09 06:24:14;;;;;;;;;;;;;;;20.56;59.50;99238.50;5020793;28;5321;-67
2023/01/09 06:26:40;;;;;;;;;;;;;;;20.56;59.30;99242.13;5021450;28;5313;-64
2023/01/09 06:29:12;;;;;;;;;;;;;;;20.50;59.93;99239.84;5024848;28;4153;-65
2023/01/09 06:31:44;;;;;;;;;;;;;;;20.59;60.87;99234.25;5023045;28;5298;-64
2023/01/09 06:34:11;;;;;;;;;;;;;;;20.70;60.14;99238.78;5023559;28;5252;-65
2023/01/09 06:36:38;;;;;;;;;;;;;;;20.77;60.08;99237.47;5020808;28;6366;-65
2023/01/09 06:39:04;;;;;;;;;;;;;;;20.83;59.87;99237.59;5018819;28;4041;-63
2023/01/09 06:41:30;;;;;;;;;;;;;;;20.86;59.50;99215.34;5012030;28;4203;-63
2023/01/09 06:43:57;;;;;;;;;;;;;;;20.95;59.47;99210.47;5025023;28;4095;-65
2023/01/09 06:46:23;;;;;;;;;;;;;;;21.01;58.94;99207.72;5023285;28;4528;-67
2023/01/09 06:48:49;;;;;;;;;;;;;;;20.98;59.23;99209.09;5017871;28;4170;-66
2023/01/09 06:51:16;;;;;;;;;;;;;;;20.72;57.94;99215.81;5012590;28;4171;-68
2023/01/09 06:53:42;;;;;;;;;;;;;;;20.79;58.31;99210.91;5018502;28;4172;-67
2023/01/09 06:56:09;;;;;;;;;;;;;;;20.88;58.26;99204.63;5020628;28;4389;-68
2023/01/09 06:58:35;;;;;;;;;;;;;;;20.91;58.28;99200.38;5025383;28;4432;-66
2023/01/09 07:01:01;;;;;;;;;;;;;;;20.93;58.57;99200.38;5015210;28;4206;-69
2023/01/09 07:03:28;;;;;;;;;;;;;;;20.99;58.51;99199.06;5020609;28;4186;-67
2023/01/09 07:05:54;;;;;;;;;;;;;;;20.98;58.16;99201.22;5021667;28;4266;-67
2023/01/09 07:08:21;;;;;;;;;;;;;;;21.02;57.99;99197.66;5021190;28;4115;-66
2023/01/09 07:10:47;;;;;;;;;;;;;;;21.06;57.37;99209.25;5020490;28;4265;-67
2023/01/09 07:13:13;;;;;;;;;;;;;;;21.11;57.50;99205.00;5024643;28;4196;-66
2023/01/09 07:15:40;;;;;;;;;;;;;;;21.07;57.52;99204.94;5021601;28;4152;-66
2023/01/09 07:18:09;;;;;;;;;;;;;;;21.00;57.85;99209.84;5020565;28;4490;-66
2023/01/09 07:20:37;;;;;;;;;;;;;;;21.03;58.23;99219.28;5019448;28;5421;-66
2023/01/09 07:23:03;;;;;;;;;;;;;;;21.07;58.53;99210.69;5021345;28;4006;-66
2023/01/09 07:25:29;;;;;;;;;;;;;;;21.11;58.38;99220.13;5026298;28;5238;-66
2023/01/09 07:27:56;;;;;;;;;;;;;;;21.11;58.37;99222.28;5022660;28;4196;-66
2023/01/09 07:30:22;;;;;;;;;;;;;;;21.07;58.71;99208.56;5020331;28;4060;-68
2023/01/09 07:32:48;;;;;;;;;;;;;;;21.08;58.64;99212.88;5023659;28;4232;-68
2023/01/09 07:35:15;;;;;;;;;;;;;;;21.08;58.72;99217.91;5022323;28;4154;-68
2023/01/09 07:37:45;;;;;;;;;;;;;;;21.03;58.20;99213.50;5021808;28;4214;-67
2023/01/09 07:40:11;;;;;;;;;;;;;;;21.09;58.25;99216.47;5023416;28;4315;-68
2023/01/09 07:42:38;;;;;;;;;;;;;;;21.25;58.05;99219.63;5012081;28;4021;-76
2023/01/09 07:45:04;;;;;;;;;;;;;;;21.21;57.98;99219.59;5025395;28;4064;-77
2023/01/09 07:47:31;;;;;;;;;;;;;;;21.17;57.87;99225.25;5020240;28;5163;-77
2023/01/09 07:49:57;;;;;;;;;;;;;;;21.19;57.97;99227.44;5017876;28;4276;-74
2023/01/09 07:52:23;;;;;;;;;;;;;;;21.21;57.62;99224.59;5020401;28;4892;-76
2023/01/09 07:54:50;;;;;;;;;;;;;;;21.20;57.79;99223.88;5020926;28;4046;-74
2023/01/09 07:57:16;;;;;;;;;;;;;;;21.18;57.74;99226.72;5028656;28;5294;-71
2023/01/09 08:00:09;;;;;;;;;;;;;;;21.16;57.48;99229.53;5021429;28;5453;-63
2023/01/09 08:02:41;;;;;;;;;;;;;;;21.03;58.30;99245.16;5013565;28;4155;-62
2023/01/09 08:05:14;;;;;;;;;;;;;;;20.98;58.11;99240.75;5015163;28;5560;-63
2023/01/09 08:07:41;;;;;;;;;;;;;;;20.96;58.06;99243.56;5015794;28;4158;-62
2023/01/09 08:10:09;;;;;;;;;;;;;;;20.95;58.13;99247.88;5016893;28;5413;-63
2023/01/09 08:12:35;;;;;;;;;;;;;;;20.95;58.07;99250.75;5019945;28;6188;-63
2023/01/09 08:15:02;;;;;;;;;;;;;;;20.93;58.07;99255.03;5021224;28;4272;-63
2023/01/09 08:17:28;;;;;;;;;;;;;;;20.93;58.08;99249.28;5012733;28;4340;-62
2023/01/09 08:19:54;;;;;;;;;;;;;;;21.19;57.83;99262.72;5018540;28;4347;-65
2023/01/09 08:22:21;;;;;;;;;;;;;;;21.19;57.23;99254.09;5016792;28;4191;-66
2023/01/09 08:24:47;;;;;;;;;;;;;;;20.49;55.26;99249.88;5021159;28;4117;-65
2023/01/09 08:27:16;;;;;;;;;;;;;;;19.98;52.52;99243.06;5018051;28;5309;-58
2023/01/09 08:29:43;;;;;;;;;;;;;;;19.70;51.59;99248.88;5018579;28;4082;-59
2023/01/09 08:32:09;;;;;;;;;;;;;;;19.86;50.87;99251.41;5015914;28;4206;-60
2023/01/09 08:34:35;;;;;;;;;;;;;;;20.22;51.71;99250.75;5017973;28;5189;-62
2023/01/09 08:37:02;;;;;;;;;;;;;;;20.47;52.28;99255.56;5013374;28;4027;-59
2023/01/09 08:39:28;;;;;;;;;;;;;;;20.64;52.36;99262.44;5015898;28;5418;-65
2023/01/09 08:47:24;;;;;;;;;;;;;;;20.73;53.17;99279.81;5022068;28;4092;-65
2023/01/09 08:49:50;;;;;;;;;;;;;;;20.73;53.60;99277.69;5000518;28;4215;-65
2023/01/09 08:52:17;;;;;;;;;;;;;;;20.73;53.78;99276.94;5020576;28;5430;-66
2023/01/09 08:54:43;;;;;;;;;;;;;;;20.73;54.04;99280.56;5020683;28;5270;-65
2023/01/09 08:57:10;;;;;;;;;;;;;;;20.74;54.23;99278.41;5021122;28;4150;-66
2023/01/09 08:59:36;;;;;;;;;;;;;;;20.75;54.31;99280.59;5024207;28;4866;-66
2023/01/09 09:02:02;;;;;;;;;;;;;;;20.75;54.30;99285.63;5023255;28;4000;-66
2023/01/09 09:04:29;;;;;;;;;;;;;;;20.74;54.23;99281.31;5022082;28;4143;-66
2023/01/09 09:06:55;;;;;;;;;;;;;;;20.74;54.42;99284.91;5020765;28;4406;-66
2023/01/09 09:09:21;;;;;;;;;;;;;;;20.73;54.71;99283.44;5021107;28;4107;-65
2023/01/09 09:11:48;;;;;;;;;;;;;;;20.73;54.76;99282.69;5023021;28;4203;-65
2023/01/09 09:16:59;;;;;;;;;;;;;;;20.71;55.02;99297.78;5024639;28;4167;-66
2023/01/09 09:19:25;;;;;;;;;;;;;;;20.71;55.00;99286.28;5022804;28;4332;-65
2023/01/09 09:21:52;;;;;;;;;;;;;;;20.69;55.07;99283.38;5021756;28;4218;-66
2023/01/09 09:24:18;;;;;;;;;;;;;;;20.69;55.02;99292.00;5023935;28;4260;-65
2023/01/09 09:26:45;;;;;;;;;;;;;;;20.70;55.30;99302.06;5022815;28;5593;-66
2023/01/09 09:29:11;;;;;;;;;;;;;;;20.68;55.27;99293.41;5022419;28;4552;-66
2023/01/09 09:31:37;;;;;;;;;;;;;;;20.68;55.10;99293.41;5021590;28;4158;-66
2023/01/09 09:34:05;;;;;;;;;;;;;;;20.69;55.04;99294.88;5021393;28;5151;-65
2023/01/09 09:36:31;;;;;;;;;;;;;;;20.69;55.39;99306.38;5020010;28;5218;-66
2023/01/09 09:38:58;;;;;;;;;;;;;;;20.70;55.35;99317.16;5018886;28;5364;-66
2023/01/09 09:47:37;;;;;;;;;;;;;;;20.68;55.44;99313.53;5024198;28;4196;-65
2023/01/09 09:50:22;;;;;;;;;;;;;;;20.67;55.39;99320.72;5009652;28;4137;-66
2023/01/09 09:52:50;;;;;;;;;;;;;;;20.67;55.84;99335.09;5020996;28;4131;-66
2023/01/09 09:55:17;;;;;;;;;;;;;;;20.66;55.72;99339.38;5001802;28;4161;-65
2023/01/09 09:57:43;;;;;;;;;;;;;;;20.67;55.40;99343.72;5028077;28;4239;-65
2023/01/09 10:00:14;;;;;;;;;;;;;;;20.68;55.55;99339.41;5021448;28;4571;-66
2023/01/09 10:02:45;;;;;;;;;;;;;;;20.67;55.72;99343.72;5009028;28;4195;-66
2023/01/09 10:05:28;;;;;;;;;;;;;;;20.67;55.68;99338.69;5025776;28;4150;-65
2023/01/09 10:07:54;;;;;;;;;;;;;;;20.68;55.71;99345.16;4998796;28;4338;-65
2023/01/09 10:10:36;;;;;;;;;;;;;;;20.68;55.76;99339.41;5024495;28;4287;-65
2023/01/09 10:14:03;;;;;;;;;;;;;;;20.67;55.78;99332.22;5001694;28;4018;-65
2023/01/09 10:16:15;;;;;;;;;;;;;;;20.69;55.74;99340.88;5022653;28;4033;-65
2023/01/09 10:18:47;;;;;;;;;;;;;;;20.68;55.76;99336.53;5018472;28;5136;-65
2023/01/09 10:21:17;;;;;;;;;;;;;;;20.68;55.76;99337.28;4993394;28;6556;-66
2023/01/09 10:23:51;;;;;;;;;;;;;;;20.67;55.82;99350.19;5001361;28;4313;-65
2023/01/09 10:26:21;;;;;;;;;;;;;;;20.68;55.77;99350.91;5022360;28;4182;-65
2023/01/09 10:29:06;;;;;;;;;;;;;;;20.66;55.68;99353.75;5021872;28;4128;-65
2023/01/09 10:31:39;;;;;;;;;;;;;;;20.65;55.79;99352.31;5020837;28;4052;-66
2023/01/09 10:34:05;;;;;;;;;;;;;;;20.65;55.92;99352.31;5002328;28;4617;-66
2023/01/09 10:36:35;;;;;;;;;;;;;;;20.64;55.95;99351.56;5021937;28;5150;-65
2023/01/09 10:39:03;;;;;;;;;;;;;;;20.63;55.93;99349.38;4993560;28;4300;-66
2023/01/09 10:41:29;;;;;;;;;;;;;;;20.63;55.95;99340.75;5022633;28;4125;-65
2023/01/09 10:44:00;;;;;;;;;;;;;;;20.62;55.96;99342.19;5020095;28;4128;-65
2023/01/09 10:46:29;;;;;;;;;;;;;;;20.62;56.04;99353.69;5006104;28;4227;-65
2023/01/09 10:48:58;;;;;;;;;;;;;;;20.62;56.06;99368.06;5000842;28;4216;-66
2023/01/09 10:51:26;;;;;;;;;;;;;;;20.61;55.86;99375.22;5023435;28;4212;-65
2023/01/09 10:53:53;;;;;;;;;;;;;;;20.63;55.88;99378.13;4999571;28;4203;-65
2023/01/09 10:56:21;;;;;;;;;;;;;;;20.63;55.90;99369.50;5021668;28;4111;-66
2023/01/09 10:58:47;;;;;;;;;;;;;;;20.64;55.81;99370.97;5024670;28;4165;-65
2023/01/09 11:01:15;;;;;;;;;;;;;;;20.65;55.85;99386.81;5025672;28;3959;-65
2023/01/09 11:03:41;;;;;;;;;;;;;;;20.64;55.90;99376.75;5025778;28;4204;-65
2023/01/09 11:06:14;;;;;;;;;;;;;;;20.64;55.87;99383.22;5022886;28;4201;-66
2023/01/09 11:08:41;;;;;;;;;;;;;;;20.64;56.00;99394.00;5000173;28;5276;-65
2023/01/09 11:11:08;;;;;;;;;;;;;;;20.63;55.88;99401.88;4995737;28;5341;-66
2023/01/09 11:13:35;;;;;;;;;;;;;;;20.63;55.87;99395.41;5004761;28;5167;-66
2023/01/09 11:16:05;;;;;;;;;;;;;;;20.64;56.06;99402.63;5019347;28;4143;-65
2023/01/09 11:18:32;;;;;;;;;;;;;;;20.62;56.07;99406.16;5019614;28;3996;-68
2023/01/09 11:21:24;;;;;;;;;;;;;;;20.62;56.03;99405.44;5017078;28;4189;-65
2023/01/09 11:23:51;;;;;;;;;;;;;;;20.62;55.90;99405.44;5004935;28;4190;-65
2023/01/09 11:26:21;;;;;;;;;;;;;;;20.62;55.98;99422.69;5024446;28;4177;-65
2023/01/09 11:29:03;;;;;;;;;;;;;;;20.62;55.89;99411.94;5021389;28;4194;-65
2023/01/09 11:31:29;;;;;;;;;;;;;;;20.63;56.04;99407.63;5021176;28;5264;-65
2023/01/09 11:33:56;;;;;;;;;;;;;;;20.63;55.81;99412.66;4995915;28;4343;-65
2023/01/09 11:36:22;;;;;;;;;;;;;;;20.64;56.00;99417.00;5022070;28;4032;-65
2023/01/09 11:38:50;;;;;;;;;;;;;;;20.64;56.00;99426.34;5000738;28;4495;-65
2023/01/09 11:41:26;;;;;;;;;;;;;;;20.65;56.06;99427.06;5002750;28;5297;-65
2023/01/09 11:43:53;;;;;;;;;;;;;;;20.64;55.92;99429.22;5024438;28;5216;-65
2023/01/09 11:46:34;;;;;;;;;;;;;;;20.64;55.97;99425.63;5024252;28;4181;-65
2023/01/09 11:49:01;;;;;;;;;;;;;;;20.64;55.93;99437.84;5023927;28;4171;-65
2023/01/09 11:51:28;;;;;;;;;;;;;;;20.64;55.97;99437.13;4997276;28;4146;-65
2023/01/09 11:54:14;;;;;;;;;;;;;;;20.64;56.00;99437.13;4996781;28;5172;-65
2023/01/09 11:56:41;;;;;;;;;;;;;;;20.64;55.97;99445.75;4999130;28;4255;-65
2023/01/09 11:59:10;;;;;;;;;;;;;;;20.62;55.93;99439.97;5022087;28;4200;-66
2023/01/09 12:01:43;;;;;;;;;;;;;;;20.62;56.04;99439.97;5005403;28;4270;-65
2023/01/09 12:04:18;;;;;;;;;;;;;;;20.63;55.95;99447.16;5022181;28;5336;-65
2023/01/09 12:06:51;;;;;;;;;;;;;;;20.64;55.80;99457.25;5000150;28;4220;-65
2023/01/09 12:09:36;;;;;;;;;;;;;;;20.65;55.83;99458.72;5023964;28;4168;-65
2023/01/09 12:12:24;;;;;;;;;;;;;;;20.64;55.67;99460.13;5021205;28;5205;-65
2023/01/09 12:14:58;;;;;;;;;;;;;;;20.65;56.03;99475.97;4996537;28;4098;-65
2023/01/09 12:17:39;;;;;;;;;;;;;;;20.65;55.72;99473.81;5004856;28;4140;-72
2023/01/09 12:20:25;;;;;;;;;;;;;;;20.68;55.86;99474.59;5008995;28;4167;-58
2023/01/09 12:23:00;;;;;;;;;;;;;;;20.74;56.70;99465.38;5010417;28;4171;-60
2023/01/09 12:25:32;;;;;;;;;;;;;;;20.67;56.30;99458.75;4996787;28;4170;-64
2023/01/09 12:28:08;;;;;;;;;;;;;;;20.48;56.16;99464.06;5013948;28;5375;-64
2023/01/09 12:30:49;;;;;;;;;;;;;;;20.55;56.19;99462.06;5015930;28;4142;-64
2023/01/09 12:33:16;;;;;;;;;;;;;;;20.60;55.96;99454.28;5011970;28;5258;-61
2023/01/09 12:35:44;;;;;;;;;;;;;;;20.62;56.18;99460.09;5018872;28;4146;-61
2023/01/09 12:38:30;;;;;;;;;;;;;;;20.62;56.49;99462.97;4995542;28;4279;-61
2023/01/09 12:41:03;;;;;;;;;;;;;;;20.61;56.54;99467.25;4995056;28;4056;-61
2023/01/09 12:43:43;;;;;;;;;;;;;;;20.60;56.41;99455.00;5016561;28;5373;-61
2023/01/09 12:46:19;;;;;;;;;;;;;;;20.61;56.39;99461.50;5004093;28;4216;-61
2023/01/09 12:49:00;;;;;;;;;;;;;;;20.62;56.38;99457.22;5019522;28;4538;-61
2023/01/09 12:51:28;;;;;;;;;;;;;;;20.64;56.42;99463.00;5016411;28;4287;-61
2023/01/09 12:54:21;;;;;;;;;;;;;;;20.63;56.27;99468.03;5014954;28;5281;-61
2023/01/09 12:56:48;;;;;;;;;;;;;;;20.66;56.36;99471.66;5009263;28;4148;-62
2023/01/09 12:59:14;;;;;;;;;;;;;;;20.65;56.31;99470.22;4994054;28;5276;-61
2023/01/09 13:01:42;;;;;;;;;;;;;;;20.65;56.62;99470.94;5015292;28;4150;-61
2023/01/09 13:04:11;;;;;;;;;;;;;;;20.65;56.62;99468.06;4992886;28;4177;-62
2023/01/09 13:06:38;;;;;;;;;;;;;;;20.67;56.66;99470.25;5015812;28;4249;-61
2023/01/09 13:09:20;;;;;;;;;;;;;;;20.68;56.87;99460.22;5015772;28;4392;-61
2023/01/09 13:11:48;;;;;;;;;;;;;;;20.68;56.91;99474.59;5020368;28;4068;-61
2023/01/09 13:14:17;;;;;;;;;;;;;;;20.67;57.05;99478.91;4992638;28;5241;-61
2023/01/09 13:16:43;;;;;;;;;;;;;;;20.67;57.23;99476.75;4992128;28;4335;-61
2023/01/09 13:19:12;;;;;;;;;;;;;;;20.68;56.80;99474.59;4997499;28;5466;-61
2023/01/09 13:21:38;;;;;;;;;;;;;;;20.67;57.00;99467.38;4996173;28;4207;-62
2023/01/09 13:24:18;;;;;;;;;;;;;;;20.65;56.91;99467.34;5019033;28;4247;-61
2023/01/09 13:26:46;;;;;;;;;;;;;;;20.69;56.38;99458.81;4987481;28;4214;-62
2023/01/09 13:29:19;;;;;;;;;;;;;;;20.70;56.60;99468.88;5014805;28;4146;-63
2023/01/09 13:31:49;;;;;;;;;;;;;;;20.63;56.97;99470.88;5015971;28;4154;-62
2023/01/09 13:34:19;;;;;;;;;;;;;;;20.50;56.84;99469.88;4992292;28;5376;-63
2023/01/09 13:36:51;;;;;;;;;;;;;;;20.44;56.85;99469.72;5009372;28;4190;-63
2023/01/09 13:39:18;;;;;;;;;;;;;;;20.43;55.41;99474.00;5024267;28;4318;-63
2023/01/09 13:44:35;;;;;;;;;;;;;;;20.41;55.50;99484.72;5003837;28;4102;-62
2023/01/09 13:47:01;;;;;;;;;;;;;;;20.30;54.19;99480.88;5012124;28;4132;-67